createdAt,value
2023-03-24T00:01:17.457Z,77.16
2023-03-24T00:03:52.437Z,77.67
2023-03-24T00:06:22.809Z,77.54
2023-03-24T00:08:50.388Z,78.00
2023-03-24T00:11:19.546Z,77.73
2023-03-24T00:13:50.540Z,78.04
2023-03-24T00:16:19.601Z,77.76
2023-03-24T00:18:53.491Z,77.76
2023-03-24T00:21:27.034Z,77.44
2023-03-24T00:23:56.117Z,77.90
2023-03-24T00:26:25.704Z,77.67
2023-03-24T00:28:53.862Z,77.32
2023-03-24T00:31:22.231Z,78.24
2023-03-24T00:33:51.362Z,78.76
2023-03-24T00:36:22.268Z,79.04
2023-03-24T00:38:50.292Z,79.66
2023-03-24T00:41:20.298Z,79.49
2023-03-24T00:43:49.880Z,79.33
2023-03-24T00:46:30.600Z,79.00
2023-03-24T00:49:03.921Z,79.82
2023-03-24T00:51:35.812Z,80.18
2023-03-24T00:54:03.163Z,80.46
2023-03-24T00:56:34.023Z,80.12
2023-03-24T00:59:02.489Z,80.31
2023-03-24T01:01:35.166Z,80.06
2023-03-24T01:04:06.221Z,80.83
2023-03-24T01:06:37.226Z,81.17
2023-03-24T01:09:06.483Z,81.23
2023-03-24T01:11:40.319Z,80.82
2023-03-24T01:14:09.766Z,81.84
2023-03-24T01:16:37.213Z,81.62
2023-03-24T01:19:05.539Z,82.23
2023-03-24T01:21:35.468Z,82.08
2023-03-24T01:24:05.447Z,82.38
2023-03-24T01:26:32.860Z,82.37
2023-03-24T01:29:00.140Z,82.32
2023-03-24T01:31:27.417Z,82.89
2023-03-24T01:33:54.648Z,82.86
2023-03-24T01:36:22.191Z,83.11
2023-03-24T01:38:49.666Z,82.97
2023-03-24T01:41:16.873Z,83.32
2023-03-24T01:43:44.647Z,82.78
2023-03-24T01:46:20.545Z,82.76
2023-03-24T01:49:13.898Z,84.03
2023-03-24T01:51:45.293Z,83.58
2023-03-24T01:54:19.121Z,83.87
2023-03-24T01:57:03.962Z,83.11
2023-03-24T01:59:36.575Z,84.55
2023-03-24T02:02:06.882Z,84.50
2023-03-24T02:04:54.336Z,84.35
2023-03-24T02:07:34.145Z,84.77
2023-03-24T02:10:11.359Z,84.73
2023-03-24T02:12:38.526Z,84.27
2023-03-24T02:15:07.166Z,85.48
2023-03-24T02:18:08.376Z,86.34
2023-03-24T02:20:55.821Z,85.67
2023-03-24T02:23:58.118Z,86.32
2023-03-24T02:26:58.738Z,86.68
2023-03-24T02:30:07.608Z,87.07
2023-03-24T02:32:34.674Z,87.06
2023-03-24T02:35:31.909Z,86.57
2023-03-24T02:37:59.004Z,87.35
2023-03-24T02:41:26.689Z,87.60
2023-03-24T02:44:40.514Z,87.74
2023-03-24T02:47:25.950Z,86.89
2023-03-24T02:50:39.587Z,86.82
2023-03-24T02:53:27.151Z,86.65
2023-03-24T02:56:17.345Z,86.70
2023-03-24T02:58:55.199Z,86.85
2023-03-24T03:01:43.666Z,86.72
2023-03-24T03:04:20.182Z,87.53
2023-03-24T03:06:53.731Z,87.17
2023-03-24T03:09:23.827Z,87.38
2023-03-24T03:11:56.800Z,88.08
2023-03-24T03:14:41.656Z,88.22
2023-03-24T03:17:35.533Z,88.13
2023-03-24T03:20:16.353Z,88.42
2023-03-24T03:22:57.031Z,88.61
2023-03-24T03:25:32.050Z,87.80
2023-03-24T03:28:03.780Z,88.34
2023-03-24T03:30:45.596Z,89.20
2023-03-24T03:33:25.249Z,89.28
2023-03-24T03:35:57.974Z,89.11
2023-03-24T03:38:37.289Z,90.34
2023-03-24T03:41:06.063Z,90.15
2023-03-24T03:43:34.576Z,90.29
2023-03-24T03:46:03.703Z,90.47
2023-03-24T03:48:32.545Z,90.38
2023-03-24T03:51:12.260Z,90.00
2023-03-24T03:53:51.661Z,90.45
2023-03-24T03:56:27.330Z,90.09
2023-03-24T03:58:55.070Z,90.08
2023-03-24T04:01:27.797Z,89.83
2023-03-24T04:04:26.341Z,89.74
2023-03-24T04:07:45.860Z,90.06
2023-03-24T04:10:31.173Z,90.27
2023-03-24T04:13:29.755Z,90.13
2023-03-24T04:16:33.235Z,90.01
2023-03-24T04:19:39.930Z,89.95
2023-03-24T04:22:15.611Z,89.77
2023-03-24T04:25:06.081Z,89.65
2023-03-24T04:27:57.161Z,89.01
2023-03-24T04:30:37.347Z,89.12
2023-03-24T04:33:22.526Z,89.70
2023-03-24T04:36:06.664Z,90.03
2023-03-24T04:38:36.469Z,89.63
2023-03-24T04:41:05.635Z,88.78
2023-03-24T04:43:36.896Z,88.32
2023-03-24T04:46:06.541Z,88.68
2023-03-24T04:48:34.013Z,88.64
2023-03-24T04:51:03.847Z,88.72
2023-03-24T04:53:31.238Z,88.48
2023-03-24T04:56:30.963Z,87.49
2023-03-24T04:58:58.803Z,87.33
2023-03-24T05:01:30.584Z,85.96
2023-03-24T05:03:59.530Z,85.39
2023-03-24T05:06:27.715Z,83.55
2023-03-24T05:08:57.028Z,82.34
2023-03-24T05:11:24.173Z,80.41
2023-03-24T05:13:51.919Z,78.80
2023-03-24T05:16:19.259Z,77.28
2023-03-24T05:18:46.734Z,75.70
2023-03-24T05:21:13.891Z,73.97
2023-03-24T05:23:41.166Z,72.47
2023-03-24T05:26:09.161Z,71.61
2023-03-24T05:28:36.462Z,71.91
2023-03-24T05:31:03.992Z,73.29
2023-03-24T05:33:31.338Z,73.41
2023-03-24T05:35:58.635Z,73.67
2023-03-24T05:38:26.281Z,75.29
2023-03-24T05:40:58.374Z,75.34
2023-03-24T05:43:26.477Z,74.85
2023-03-24T05:45:54.405Z,75.08
2023-03-24T05:48:22.157Z,73.35
2023-03-24T05:50:49.456Z,76.03
2023-03-24T05:53:16.798Z,76.78
2023-03-24T05:55:46.447Z,76.67
2023-03-24T05:58:13.900Z,76.43
2023-03-24T06:00:41.250Z,78.24
2023-03-24T06:03:08.506Z,77.31
2023-03-24T06:05:36.153Z,77.74
2023-03-24T06:08:04.034Z,77.76
2023-03-24T06:10:31.482Z,77.20
2023-03-24T06:12:58.760Z,76.40
2023-03-24T06:15:28.185Z,77.11
2023-03-24T06:17:55.638Z,77.81
2023-03-24T06:20:23.058Z,77.52
2023-03-24T06:22:50.505Z,76.27
2023-03-24T06:25:22.172Z,75.66
2023-03-24T06:27:49.376Z,77.62
2023-03-24T06:30:18.781Z,77.95
2023-03-24T06:32:46.924Z,78.44
2023-03-24T06:35:17.135Z,77.66
2023-03-24T06:37:45.068Z,76.47
2023-03-24T06:40:15.998Z,77.20
2023-03-24T06:42:43.546Z,76.46
2023-03-24T06:45:11.540Z,77.22
2023-03-24T06:47:38.912Z,77.26
2023-03-24T06:50:07.926Z,78.24
2023-03-24T06:52:35.781Z,78.60
2023-03-24T06:55:04.083Z,78.94
2023-03-24T06:57:31.794Z,78.22
2023-03-24T06:59:59.162Z,78.30
2023-03-24T07:02:34.347Z,78.47
2023-03-24T07:05:12.910Z,78.91
2023-03-24T07:10:14.242Z,78.76
2023-03-24T07:12:41.688Z,78.79
2023-03-24T07:15:09.642Z,78.80
2023-03-24T07:17:36.865Z,78.67
2023-03-24T07:20:08.506Z,79.64
2023-03-24T07:22:37.200Z,79.29
2023-03-24T07:25:05.791Z,78.75
2023-03-24T07:27:34.366Z,78.49
2023-03-24T07:30:02.547Z,79.09
2023-03-24T07:32:35.054Z,78.25
2023-03-24T07:35:02.754Z,78.46
2023-03-24T07:37:29.969Z,79.39
2023-03-24T07:39:57.163Z,79.07
2023-03-24T07:42:25.259Z,79.26
2023-03-24T07:44:52.779Z,78.39
2023-03-24T07:47:19.852Z,79.35
2023-03-24T07:49:46.912Z,79.97
2023-03-24T07:52:14.005Z,80.55
2023-03-24T07:54:41.492Z,81.03
2023-03-24T07:57:10.874Z,80.04
2023-03-24T07:59:38.611Z,81.00
2023-03-24T08:02:18.587Z,81.54
2023-03-24T08:04:46.887Z,81.51
2023-03-24T08:07:14.004Z,82.15
2023-03-24T08:09:41.441Z,81.92
2023-03-24T08:12:17.797Z,83.61
2023-03-24T08:14:47.713Z,84.83
2023-03-24T08:17:14.952Z,84.56
2023-03-24T08:19:56.202Z,83.93
2023-03-24T08:22:27.386Z,83.93
2023-03-24T08:24:54.711Z,83.24
2023-03-24T08:27:21.770Z,82.60
2023-03-24T08:29:49.149Z,81.87
2023-03-24T08:32:16.300Z,80.99
2023-03-24T08:34:43.583Z,81.42
2023-03-24T08:37:12.089Z,82.45
2023-03-24T08:39:39.184Z,82.33
2023-03-24T08:42:06.697Z,83.20
2023-03-24T08:44:33.970Z,83.46
2023-03-24T08:47:02.849Z,83.79
2023-03-24T08:49:30.055Z,85.60
2023-03-24T08:51:57.269Z,84.38
2023-03-24T08:54:26.195Z,85.41
2023-03-24T08:56:53.268Z,85.30
2023-03-24T08:59:20.414Z,84.33
2023-03-24T09:01:47.614Z,83.25
2023-03-24T09:04:14.732Z,82.59
2023-03-24T09:06:42.021Z,81.12
2023-03-24T09:09:09.145Z,79.95
2023-03-24T09:11:38.619Z,78.80
2023-03-24T09:14:05.901Z,77.79
2023-03-24T09:16:33.275Z,76.94
2023-03-24T09:19:00.397Z,73.99
2023-03-24T09:21:27.564Z,70.90
2023-03-24T09:23:54.607Z,69.50
2023-03-24T09:26:23.140Z,68.50
2023-03-24T09:28:50.386Z,65.80
2023-03-24T09:31:17.466Z,64.63
2023-03-24T09:33:44.600Z,64.07
2023-03-24T09:36:11.967Z,64.02
2023-03-24T09:38:39.163Z,65.13
2023-03-24T09:41:19.787Z,64.97
2023-03-24T09:43:51.603Z,63.97
2023-03-24T09:46:45.173Z,65.94
2023-03-24T09:49:24.859Z,66.47
2023-03-24T09:52:00.717Z,66.49
2023-03-24T09:55:02.803Z,67.09
2023-03-24T09:57:41.340Z,68.05
2023-03-24T10:00:29.101Z,68.07
2023-03-24T10:03:23.237Z,69.08
2023-03-24T10:06:10.641Z,69.52
2023-03-24T10:08:55.638Z,68.91
2023-03-24T10:11:55.018Z,69.53
2023-03-24T10:15:17.718Z,70.52
2023-03-24T10:18:01.882Z,69.81
2023-03-24T10:20:50.177Z,69.19
2023-03-24T10:23:32.018Z,68.32
2023-03-24T10:26:38.070Z,69.26
2023-03-24T10:29:26.855Z,68.75
2023-03-24T10:32:06.283Z,68.79
2023-03-24T10:34:34.982Z,68.62
2023-03-24T10:37:04.476Z,67.95
2023-03-24T10:39:43.954Z,67.57
2023-03-24T10:42:30.714Z,68.31
2023-03-24T10:44:58.010Z,67.64
2023-03-24T10:47:30.165Z,66.97
2023-03-24T10:50:13.006Z,66.34
2023-03-24T10:52:48.825Z,65.03
2023-03-24T10:55:20.439Z,65.35
2023-03-24T10:57:53.803Z,64.97
2023-03-24T11:00:32.629Z,64.59
2023-03-24T11:03:07.071Z,63.33
2023-03-24T11:05:38.472Z,63.72
2023-03-24T11:08:17.696Z,64.46
2023-03-24T11:10:45.387Z,63.62
2023-03-24T11:13:30.216Z,64.53
2023-03-24T11:16:17.593Z,65.57
2023-03-24T11:19:22.443Z,65.98
2023-03-24T11:21:55.655Z,65.99
2023-03-24T11:24:30.371Z,66.27
2023-03-24T11:27:03.330Z,66.85
2023-03-24T11:29:38.496Z,66.41
2023-03-24T11:32:16.644Z,66.44
2023-03-24T11:34:52.721Z,66.86
2023-03-24T11:37:23.312Z,66.36
2023-03-24T11:40:19.665Z,66.89
2023-03-24T11:42:58.850Z,65.80
2023-03-24T11:45:44.270Z,65.83
2023-03-24T11:48:19.968Z,64.49
2023-03-24T11:50:47.605Z,64.67
2023-03-24T11:53:21.899Z,64.90
2023-03-24T11:56:23.249Z,65.17
2023-03-24T11:59:08.577Z,64.85
2023-03-24T12:02:02.532Z,65.73
2023-03-24T12:04:37.565Z,65.32
2023-03-24T12:07:53.265Z,65.78
2023-03-24T12:10:41.695Z,65.31
2023-03-24T12:13:33.364Z,64.29
2023-03-24T12:16:54.567Z,64.36
2023-03-24T12:19:27.902Z,63.64
2023-03-24T12:22:23.060Z,62.76
2023-03-24T12:25:03.280Z,61.52
2023-03-24T12:28:00.231Z,60.56
2023-03-24T12:31:37.227Z,60.48
2023-03-24T12:34:46.117Z,59.66
2023-03-24T12:37:28.054Z,59.30
2023-03-24T12:40:39.007Z,58.33
2023-03-24T12:43:36.704Z,57.26
2023-03-24T12:50:05.956Z,55.54
2023-03-24T12:52:47.288Z,55.60
2023-03-24T12:55:35.494Z,56.26
2023-03-24T12:58:14.704Z,55.72
2023-03-24T13:01:09.013Z,55.79
2023-03-24T13:03:55.855Z,54.77
2023-03-24T13:06:41.264Z,55.26
2023-03-24T13:09:14.422Z,54.85
2023-03-24T13:11:58.369Z,55.01
2023-03-24T13:14:39.085Z,54.70
2023-03-24T13:17:17.292Z,54.94
2023-03-24T13:19:44.934Z,54.91
2023-03-24T13:22:20.764Z,54.99
2023-03-24T13:24:48.566Z,54.64
2023-03-24T13:27:27.957Z,54.13
2023-03-24T13:30:32.387Z,54.75
2023-03-24T13:33:38.956Z,54.24
2023-03-24T13:36:36.865Z,54.48
2023-03-24T13:39:16.678Z,54.94
2023-03-24T13:41:52.138Z,54.88
2023-03-24T13:44:24.206Z,54.56
2023-03-24T13:47:13.752Z,54.76
2023-03-24T13:50:04.646Z,55.52
2023-03-24T13:52:46.018Z,54.97
2023-03-24T13:55:23.529Z,54.68
2023-03-24T13:58:04.953Z,54.73
2023-03-24T14:00:32.156Z,54.30
2023-03-24T14:03:32.271Z,53.93
2023-03-24T14:06:07.636Z,53.53
2023-03-24T14:08:53.018Z,54.10
2023-03-24T14:11:33.892Z,53.31
2023-03-24T14:14:16.383Z,53.64
2023-03-24T14:16:53.185Z,53.80
2023-03-24T14:19:24.626Z,53.27
2023-03-24T14:22:12.926Z,53.80
2023-03-24T14:24:43.784Z,53.82
2023-03-24T14:27:42.800Z,53.43
2023-03-24T14:30:16.960Z,54.02
2023-03-24T14:32:52.262Z,54.19
2023-03-24T14:35:44.537Z,54.23
2023-03-24T14:38:14.729Z,53.99
2023-03-24T14:40:46.413Z,53.78
2023-03-24T14:43:39.337Z,53.77
2023-03-24T14:46:48.178Z,53.65
2023-03-24T14:49:32.567Z,53.48
2023-03-24T14:52:40.498Z,54.24
2023-03-24T14:55:13.082Z,54.31
2023-03-24T14:57:44.970Z,54.48
2023-03-24T15:00:45.472Z,54.33
2023-03-24T15:04:05.794Z,55.34
2023-03-24T15:06:33.494Z,56.75
2023-03-24T15:09:05.641Z,56.82
2023-03-24T15:11:41.649Z,55.73
2023-03-24T15:14:27.624Z,56.12
2023-03-24T15:17:16.384Z,56.23
2023-03-24T15:19:43.575Z,56.31
2023-03-24T15:22:14.408Z,56.29
2023-03-24T15:24:43.013Z,56.61
2023-03-24T15:27:26.516Z,56.12
2023-03-24T15:29:59.691Z,56.56
2023-03-24T15:32:31.768Z,56.53
2023-03-24T15:35:07.557Z,56.72
2023-03-24T15:37:41.029Z,56.19
2023-03-24T15:40:31.780Z,56.42
2023-03-24T15:43:06.872Z,56.05
2023-03-24T15:45:38.302Z,56.09
2023-03-24T15:48:20.622Z,55.85
2023-03-24T15:51:06.817Z,55.76
2023-03-24T15:53:33.747Z,56.50
2023-03-24T15:56:32.404Z,56.34
2023-03-24T15:59:11.865Z,56.27
2023-03-24T16:01:43.291Z,55.97
2023-03-24T16:04:17.566Z,56.17
2023-03-24T16:06:53.396Z,56.76
2023-03-24T16:09:27.210Z,57.18
2023-03-24T16:11:54.500Z,57.54
2023-03-24T16:14:26.525Z,57.13
2023-03-24T16:16:56.894Z,57.23
2023-03-24T16:19:25.049Z,57.11
2023-03-24T16:21:52.242Z,57.06
2023-03-24T16:24:19.332Z,57.64
2023-03-24T16:26:46.513Z,58.57
2023-03-24T16:29:21.954Z,58.11
2023-03-24T16:31:52.800Z,58.74
2023-03-24T16:34:23.079Z,59.41
2023-03-24T16:36:54.246Z,60.12
2023-03-24T16:39:27.818Z,60.59
2023-03-24T16:41:56.586Z,62.59
2023-03-24T16:44:24.823Z,66.35
2023-03-24T16:46:54.426Z,72.12
2023-03-24T16:49:23.055Z,75.52
2023-03-24T16:51:50.707Z,79.40
2023-03-24T16:54:17.892Z,80.12
2023-03-24T16:56:44.958Z,82.87
2023-03-24T16:59:14.946Z,84.46
2023-03-24T17:01:46.190Z,84.03
2023-03-24T17:04:19.462Z,88.95
2023-03-24T17:06:55.386Z,90.10
2023-03-24T17:09:22.863Z,91.12
2023-03-24T17:11:55.318Z,93.59
2023-03-24T17:14:22.947Z,94.97
2023-03-24T17:16:52.918Z,93.99
2023-03-24T17:19:22.740Z,94.80
2023-03-24T17:22:03.118Z,95.34
2023-03-24T17:24:39.441Z,96.44
2023-03-24T17:27:21.382Z,95.83
2023-03-24T17:29:48.599Z,96.84
2023-03-24T17:32:16.383Z,97.99
2023-03-24T17:34:47.582Z,98.73
2023-03-24T17:37:14.649Z,99.49
2023-03-24T17:39:41.793Z,100.00
2023-03-24T17:42:08.945Z,100.00
2023-03-24T17:44:36.198Z,100.00
2023-03-24T17:47:03.418Z,100.00
2023-03-24T17:49:31.038Z,100.00
2023-03-24T17:51:58.170Z,100.00
2023-03-24T17:54:25.974Z,100.00
2023-03-24T17:56:53.136Z,100.00
2023-03-24T17:59:20.410Z,100.00
2023-03-24T18:01:47.682Z,100.00
2023-03-24T18:04:14.782Z,100.00
2023-03-24T18:06:42.482Z,100.00
2023-03-24T18:09:10.509Z,100.00
2023-03-24T18:11:38.228Z,100.00
2023-03-24T18:14:05.829Z,100.00
2023-03-24T18:16:35.511Z,100.00
2023-03-24T18:19:02.969Z,100.00
2023-03-24T18:21:30.207Z,100.00
2023-03-24T18:23:57.386Z,100.00
2023-03-24T18:26:25.817Z,100.00
2023-03-24T18:28:53.090Z,100.00
2023-03-24T18:31:23.606Z,100.00
2023-03-24T18:33:51.443Z,100.00
2023-03-24T18:36:26.866Z,100.00
2023-03-24T18:39:01.589Z,100.00
2023-03-24T18:41:30.466Z,100.00
2023-03-24T18:43:59.556Z,100.00
2023-03-24T18:46:28.619Z,100.00
2023-03-24T18:48:56.465Z,100.00
2023-03-24T18:51:27.682Z,100.00
2023-03-24T18:53:55.375Z,100.00
2023-03-24T18:56:24.016Z,100.00
2023-03-24T18:58:52.538Z,100.00
2023-03-24T19:01:24.665Z,100.00
2023-03-24T19:03:53.397Z,100.00
2023-03-24T19:06:26.205Z,100.00
2023-03-24T19:08:53.885Z,100.00
2023-03-24T19:11:21.438Z,100.00
2023-03-24T19:13:50.701Z,100.00
2023-03-24T19:16:20.206Z,100.00
2023-03-24T19:18:48.636Z,100.00
2023-03-24T19:21:17.292Z,100.00
2023-03-24T19:23:46.945Z,100.00
2023-03-24T19:26:16.551Z,100.00
2023-03-24T19:28:44.405Z,100.00
2023-03-24T19:31:15.525Z,100.00
2023-03-24T19:33:42.986Z,100.00
2023-03-24T19:36:11.078Z,100.00
2023-03-24T19:38:39.072Z,100.00
2023-03-24T19:41:16.376Z,100.00
2023-03-24T19:43:43.687Z,100.00
2023-03-24T19:46:11.002Z,100.00
2023-03-24T19:48:38.305Z,100.00
2023-03-24T19:51:05.933Z,100.00
2023-03-24T19:53:33.256Z,100.00
2023-03-24T19:56:01.455Z,100.00
2023-03-24T19:58:28.821Z,100.00
2023-03-24T20:00:56.114Z,100.00
2023-03-24T20:03:23.924Z,100.00
2023-03-24T20:05:51.563Z,100.00
2023-03-24T20:08:19.360Z,100.00
2023-03-24T20:10:47.193Z,100.00
2023-03-24T20:13:14.252Z,100.00
2023-03-24T20:15:41.554Z,100.00
2023-03-24T20:18:10.637Z,100.00
2023-03-24T20:20:38.212Z,100.00
2023-03-24T20:23:05.434Z,100.00
2023-03-24T20:25:32.727Z,100.00
2023-03-24T20:28:00.058Z,100.00
2023-03-24T20:30:28.834Z,100.00
2023-03-24T20:32:57.634Z,100.00
2023-03-24T20:35:25.772Z,100.00
2023-03-24T20:37:52.996Z,100.00
2023-03-24T20:40:20.894Z,100.00
2023-03-24T20:42:47.988Z,100.00
2023-03-24T20:45:15.536Z,100.00
2023-03-24T20:47:43.087Z,100.00
2023-03-24T20:50:10.942Z,100.00
2023-03-24T20:52:38.144Z,100.00
2023-03-24T20:55:06.537Z,100.00
2023-03-24T20:57:34.299Z,100.00
2023-03-24T21:00:02.294Z,100.00
2023-03-24T21:02:31.818Z,100.00
2023-03-24T21:04:58.967Z,100.00
2023-03-24T21:07:27.029Z,100.00
2023-03-24T21:09:54.047Z,100.00
2023-03-24T21:12:21.933Z,100.00
2023-03-24T21:14:49.533Z,100.00
2023-03-24T21:17:18.651Z,99.75
2023-03-24T21:19:46.921Z,98.98
2023-03-24T21:22:15.484Z,98.22
2023-03-24T21:24:42.592Z,95.97
2023-03-24T21:27:09.754Z,93.68
2023-03-24T21:29:36.978Z,90.19
2023-03-24T21:32:05.492Z,88.98
2023-03-24T21:34:32.697Z,87.47
2023-03-24T21:37:01.605Z,87.11
2023-03-24T21:39:29.054Z,88.00
2023-03-24T21:41:56.295Z,88.25
2023-03-24T21:44:23.755Z,89.68
2023-03-24T21:46:51.020Z,91.02
2023-03-24T21:49:20.175Z,91.75
2023-03-24T21:51:47.939Z,91.40
2023-03-24T21:54:15.221Z,91.46
2023-03-24T21:56:42.402Z,90.79
2023-03-24T21:59:11.257Z,92.13
2023-03-24T22:01:38.462Z,92.80
2023-03-24T22:04:09.185Z,94.10
2023-03-24T22:06:37.968Z,94.56
2023-03-24T22:09:06.900Z,94.56
2023-03-24T22:11:35.910Z,95.93
2023-03-24T22:14:03.854Z,96.17
2023-03-24T22:16:31.183Z,96.04
2023-03-24T22:18:58.694Z,96.45
2023-03-24T22:21:25.795Z,96.65
2023-03-24T22:23:52.900Z,97.35
2023-03-24T22:26:20.064Z,98.29
2023-03-24T22:28:47.233Z,98.55
2023-03-24T22:31:16.982Z,97.85
2023-03-24T22:33:45.244Z,98.32
2023-03-24T22:36:12.651Z,97.89
2023-03-24T22:38:40.060Z,97.79
2023-03-24T22:41:10.715Z,97.16
2023-03-24T22:43:39.868Z,97.86
2023-03-24T22:46:08.308Z,97.81
2023-03-24T22:48:35.555Z,96.92
2023-03-24T22:51:02.623Z,97.01
2023-03-24T22:53:29.753Z,96.46
2023-03-24T22:55:57.349Z,95.80
2023-03-24T22:58:24.565Z,95.67
2023-03-24T23:00:56.289Z,95.46
2023-03-24T23:03:23.416Z,95.04
2023-03-24T23:05:50.806Z,93.65
2023-03-24T23:08:19.218Z,94.57
2023-03-24T23:10:47.911Z,94.35
2023-03-24T23:13:17.127Z,93.48
2023-03-24T23:15:44.560Z,94.65
2023-03-24T23:18:12.078Z,94.94
2023-03-24T23:20:40.689Z,94.39
2023-03-24T23:23:08.034Z,93.45
2023-03-24T23:25:43.827Z,94.30
2023-03-24T23:28:12.989Z,95.59
2023-03-24T23:30:41.396Z,95.13
2023-03-24T23:33:09.014Z,94.11
2023-03-24T23:35:37.568Z,94.58
2023-03-24T23:38:06.789Z,95.79
2023-03-24T23:40:34.066Z,95.97
2023-03-24T23:43:02.633Z,95.79
2023-03-24T23:45:29.838Z,95.42
2023-03-24T23:47:57.174Z,96.70
2023-03-24T23:50:24.363Z,97.40
2023-03-24T23:52:51.408Z,97.61
2023-03-24T23:55:18.615Z,97.13
2023-03-24T23:57:46.533Z,96.60
